This is the latest recevied weather packets stored in our database for station/object HB9EYW-6. If no packets are shown the sender has not sent any weather packets the latest 10 day(s).
| Time | Temp. | Humidity | Pressure | Rain* | Wind** | Luminosity | Snow |
|---|---|---|---|---|---|---|---|
| 1778175604 | 17.22° C | 37% | 0 hPa | 0 mm | - | - | - |
| 1778175304 | 17.78° C | 35% | 0 hPa | 0 mm | - | - | - |
| 1778175004 | 18.33° C | 35% | 0 hPa | 0 mm | - | - | - |
| 1778174704 | 18.33° C | 38% | 0 hPa | 0 mm | - | - | - |
| 1778174404 | 17.78° C | 40% | 0 hPa | 0 mm | - | - | - |
| 1778174104 | 17.22° C | 40% | 0 hPa | 0 mm | - | - | - |
| 1778173804 | 16.67° C | 39% | 0 hPa | 0 mm | - | - | - |
| 1778173504 | 17.22° C | 38% | 0 hPa | 0 mm | - | - | - |
| 1778173204 | 17.22° C | 38% | 0 hPa | 0 mm | - | - | - |
| 1778172904 | 17.22° C | 39% | 0 hPa | 0 mm | - | - | - |
| 1778172604 | 17.22° C | 38% | 0 hPa | 0 mm | - | - | - |
| 1778172304 | 17.78° C | 37% | 0 hPa | 0 mm | - | - | - |
| 1778172004 | 17.78° C | 37% | 0 hPa | 0 mm | - | - | - |
| 1778171704 | 18.33° C | 35% | 0 hPa | 0 mm | - | - | - |
| 1778171404 | 18.89° C | 33% | 0 hPa | 0 mm | - | - | - |
| 1778171104 | 19.44° C | 31% | 0 hPa | 0 mm | - | - | - |
| 1778170804 | 20.56° C | 31% | 0 hPa | 0 mm | - | - | - |
| 1778170504 | 20.56° C | 34% | 0 hPa | 0 mm | - | - | - |
| 1778170204 | 19.44° C | 36% | 0 hPa | 0 mm | - | - | - |
| 1778169904 | 18.33° C | 41% | 0 hPa | 0 mm | - | - | - |
| 1778169604 | 18.33° C | 41% | 0 hPa | 0 mm | - | - | - |
| 1778169304 | 17.78° C | 41% | 0 hPa | 0 mm | - | - | - |
| 1778169004 | 17.22° C | 41% | 0 hPa | 0 mm | - | - | - |
| 1778168704 | 17.78° C | 40% | 0 hPa | 0 mm | - | - | - |
| 1778168404 | 17.78° C | 40% | 0 hPa | 0 mm | - | - | - |
* Rain latest hour (hover to see other rain measurements)
** Current wind speed in m/s (hover to see current wind gust speed)